Terminal Aerodrome Forecast
Issued by NWS

Home | Current Version | Previous Version | Text Only | Print | Product List | Glossary On
Versions: 1 2 3 4 5 6 7 8 9 10 11 12 13
000
FTUS43 KLSX 031120
TAFCPS
TAF
KCPS 031120Z 0312/0412 25004KT P6SM BKN150
     FM031500 28007KT P6SM SCT040 SCT100
     FM040000 VRB02KT P6SM SCT050 BKN150=

USA.gov is the U.S. government's official web portal to all federal, state and local government web resources and services.